sensor_id;sensor_type;location;lat;lon;timestamp;P1;durP1;ratioP1;P2;durP2;ratioP2
71888;SDS011;59762;49.998;14.858;2022-08-30T00:00:37;3.95;;;1.90;;
71888;SDS011;59762;49.998;14.858;2022-08-30T00:03:21;4.63;;;2.08;;
71888;SDS011;59762;49.998;14.858;2022-08-30T00:05:47;4.20;;;2.33;;
71888;SDS011;59762;49.998;14.858;2022-08-30T00:08:14;8.20;;;2.30;;
71888;SDS011;59762;49.998;14.858;2022-08-30T00:10:40;5.03;;;2.83;;
71888;SDS011;59762;49.998;14.858;2022-08-30T00:13:07;6.15;;;2.05;;
71888;SDS011;59762;49.998;14.858;2022-08-30T00:15:34;6.68;;;2.30;;
71888;SDS011;59762;49.998;14.858;2022-08-30T00:17:59;5.00;;;2.45;;
71888;SDS011;59762;49.998;14.858;2022-08-30T00:20:28;6.32;;;2.42;;
71888;SDS011;59762;49.998;14.858;2022-08-30T00:22:56;6.32;;;2.85;;
71888;SDS011;59762;49.998;14.858;2022-08-30T00:25:22;5.85;;;2.53;;
71888;SDS011;59762;49.998;14.858;2022-08-30T00:27:53;5.70;;;3.05;;
71888;SDS011;59762;49.998;14.858;2022-08-30T00:30:20;4.90;;;2.55;;
71888;SDS011;59762;49.998;14.858;2022-08-30T00:32:49;7.60;;;2.60;;
71888;SDS011;59762;49.998;14.858;2022-08-30T00:35:16;4.63;;;2.58;;
71888;SDS011;59762;49.998;14.858;2022-08-30T00:37:44;6.95;;;2.67;;
71888;SDS011;59762;49.998;14.858;2022-08-30T00:40:19;6.38;;;2.80;;
71888;SDS011;59762;49.998;14.858;2022-08-30T00:42:54;5.68;;;2.58;;
71888;SDS011;59762;49.998;14.858;2022-08-30T00:45:24;90.75;;;24.00;;
71888;SDS011;59762;49.998;14.858;2022-08-30T00:48:00;28.98;;;11.02;;
71888;SDS011;59762;49.998;14.858;2022-08-30T00:50:32;56.38;;;19.40;;
71888;SDS011;59762;49.998;14.858;2022-08-30T00:53:05;232.37;;;73.87;;
71888;SDS011;59762;49.998;14.858;2022-08-30T00:55:33;142.15;;;45.97;;
71888;SDS011;59762;49.998;14.858;2022-08-30T00:58:01;18.27;;;6.22;;
71888;SDS011;59762;49.998;14.858;2022-08-30T01:00:29;13.05;;;5.53;;
71888;SDS011;59762;49.998;14.858;2022-08-30T01:02:55;3.28;;;2.45;;
71888;SDS011;59762;49.998;14.858;2022-08-30T01:05:21;4.85;;;2.83;;
71888;SDS011;59762;49.998;14.858;2022-08-30T01:07:48;7.95;;;3.40;;
71888;SDS011;59762;49.998;14.858;2022-08-30T01:10:19;9.07;;;3.28;;
71888;SDS011;59762;49.998;14.858;2022-08-30T01:12:45;5.60;;;3.20;;
71888;SDS011;59762;49.998;14.858;2022-08-30T01:15:12;7.43;;;3.03;;
71888;SDS011;59762;49.998;14.858;2022-08-30T01:17:40;8.63;;;3.50;;
71888;SDS011;59762;49.998;14.858;2022-08-30T01:20:14;8.55;;;3.10;;
71888;SDS011;59762;49.998;14.858;2022-08-30T01:25:22;5.72;;;2.60;;
71888;SDS011;59762;49.998;14.858;2022-08-30T01:27:53;5.35;;;2.92;;
71888;SDS011;59762;49.998;14.858;2022-08-30T01:30:21;6.35;;;3.28;;
71888;SDS011;59762;49.998;14.858;2022-08-30T01:32:48;10.48;;;3.00;;
71888;SDS011;59762;49.998;14.858;2022-08-30T01:35:16;6.60;;;2.47;;
71888;SDS011;59762;49.998;14.858;2022-08-30T01:37:43;4.60;;;2.53;;
71888;SDS011;59762;49.998;14.858;2022-08-30T01:40:10;5.95;;;2.72;;
71888;SDS011;59762;49.998;14.858;2022-08-30T01:42:37;4.20;;;2.58;;
71888;SDS011;59762;49.998;14.858;2022-08-30T01:45:04;5.43;;;3.25;;
71888;SDS011;59762;49.998;14.858;2022-08-30T01:47:34;4.05;;;2.83;;
71888;SDS011;59762;49.998;14.858;2022-08-30T01:50:00;6.90;;;3.30;;
71888;SDS011;59762;49.998;14.858;2022-08-30T01:52:26;4.60;;;3.08;;
71888;SDS011;59762;49.998;14.858;2022-08-30T01:54:52;5.22;;;2.90;;
71888;SDS011;59762;49.998;14.858;2022-08-30T01:57:19;5.95;;;3.35;;
71888;SDS011;59762;49.998;14.858;2022-08-30T01:59:47;7.07;;;3.00;;
71888;SDS011;59762;49.998;14.858;2022-08-30T02:02:18;7.05;;;3.08;;
71888;SDS011;59762;49.998;14.858;2022-08-30T02:04:47;9.18;;;3.78;;
71888;SDS011;59762;49.998;14.858;2022-08-30T02:07:13;9.88;;;4.10;;
71888;SDS011;59762;49.998;14.858;2022-08-30T02:09:40;10.07;;;4.32;;
71888;SDS011;59762;49.998;14.858;2022-08-30T02:12:07;7.78;;;3.53;;
71888;SDS011;59762;49.998;14.858;2022-08-30T02:14:34;8.32;;;3.80;;
71888;SDS011;59762;49.998;14.858;2022-08-30T02:17:00;5.13;;;3.08;;
71888;SDS011;59762;49.998;14.858;2022-08-30T02:19:27;9.10;;;4.13;;
71888;SDS011;59762;49.998;14.858;2022-08-30T02:21:56;7.00;;;3.20;;
71888;SDS011;59762;49.998;14.858;2022-08-30T02:24:22;8.40;;;3.58;;
71888;SDS011;59762;49.998;14.858;2022-08-30T02:26:48;11.40;;;4.53;;
71888;SDS011;59762;49.998;14.858;2022-08-30T02:29:14;11.05;;;4.13;;
71888;SDS011;59762;49.998;14.858;2022-08-30T02:31:40;11.00;;;3.67;;
71888;SDS011;59762;49.998;14.858;2022-08-30T02:34:05;10.15;;;3.92;;
71888;SDS011;59762;49.998;14.858;2022-08-30T02:36:32;8.68;;;3.60;;
71888;SDS011;59762;49.998;14.858;2022-08-30T02:38:57;11.07;;;3.85;;
71888;SDS011;59762;49.998;14.858;2022-08-30T02:41:24;6.97;;;3.05;;
71888;SDS011;59762;49.998;14.858;2022-08-30T02:43:50;7.25;;;3.70;;
71888;SDS011;59762;49.998;14.858;2022-08-30T02:46:16;9.05;;;3.85;;
71888;SDS011;59762;49.998;14.858;2022-08-30T02:48:46;11.40;;;3.30;;
71888;SDS011;59762;49.998;14.858;2022-08-30T02:51:12;9.18;;;3.55;;
71888;SDS011;59762;49.998;14.858;2022-08-30T02:53:39;11.98;;;3.40;;
71888;SDS011;59762;49.998;14.858;2022-08-30T02:56:06;9.45;;;4.07;;
71888;SDS011;59762;49.998;14.858;2022-08-30T02:58:33;9.65;;;3.63;;
71888;SDS011;59762;49.998;14.858;2022-08-30T03:00:58;7.90;;;3.92;;
71888;SDS011;59762;49.998;14.858;2022-08-30T03:03:24;5.13;;;3.20;;
71888;SDS011;59762;49.998;14.858;2022-08-30T03:05:50;9.82;;;2.92;;
71888;SDS011;59762;49.998;14.858;2022-08-30T03:08:15;7.32;;;3.33;;
71888;SDS011;59762;49.998;14.858;2022-08-30T03:10:41;10.18;;;3.60;;
71888;SDS011;59762;49.998;14.858;2022-08-30T03:13:06;6.05;;;3.15;;
71888;SDS011;59762;49.998;14.858;2022-08-30T03:15:36;10.43;;;3.28;;
71888;SDS011;59762;49.998;14.858;2022-08-30T03:18:04;7.03;;;3.97;;
71888;SDS011;59762;49.998;14.858;2022-08-30T03:20:30;8.65;;;3.90;;
71888;SDS011;59762;49.998;14.858;2022-08-30T03:22:55;7.72;;;3.28;;
71888;SDS011;59762;49.998;14.858;2022-08-30T03:25:22;11.90;;;3.30;;
71888;SDS011;59762;49.998;14.858;2022-08-30T03:27:48;8.32;;;3.22;;
71888;SDS011;59762;49.998;14.858;2022-08-30T03:30:15;8.13;;;3.30;;
71888;SDS011;59762;49.998;14.858;2022-08-30T03:32:42;12.55;;;4.18;;
71888;SDS011;59762;49.998;14.858;2022-08-30T03:35:08;11.13;;;4.05;;
71888;SDS011;59762;49.998;14.858;2022-08-30T03:37:35;11.30;;;4.28;;
71888;SDS011;59762;49.998;14.858;2022-08-30T03:40:02;8.95;;;4.22;;
71888;SDS011;59762;49.998;14.858;2022-08-30T03:42:29;11.65;;;3.47;;
71888;SDS011;59762;49.998;14.858;2022-08-30T03:44:54;7.65;;;4.03;;
71888;SDS011;59762;49.998;14.858;2022-08-30T03:47:20;4.72;;;3.38;;
71888;SDS011;59762;49.998;14.858;2022-08-30T03:49:46;8.88;;;4.25;;
71888;SDS011;59762;49.998;14.858;2022-08-30T03:52:12;5.88;;;3.67;;
71888;SDS011;59762;49.998;14.858;2022-08-30T03:54:37;7.65;;;4.00;;
71888;SDS011;59762;49.998;14.858;2022-08-30T03:57:04;8.85;;;4.07;;
71888;SDS011;59762;49.998;14.858;2022-08-30T03:59:31;7.05;;;3.53;;
71888;SDS011;59762;49.998;14.858;2022-08-30T04:01:57;7.57;;;4.07;;
71888;SDS011;59762;49.998;14.858;2022-08-30T04:04:23;9.23;;;3.53;;
71888;SDS011;59762;49.998;14.858;2022-08-30T04:06:49;10.63;;;3.78;;
71888;SDS011;59762;49.998;14.858;2022-08-30T04:09:16;7.90;;;3.38;;
71888;SDS011;59762;49.998;14.858;2022-08-30T04:11:42;13.48;;;3.92;;
71888;SDS011;59762;49.998;14.858;2022-08-30T04:14:08;7.95;;;4.28;;
71888;SDS011;59762;49.998;14.858;2022-08-30T04:16:33;12.32;;;4.00;;
71888;SDS011;59762;49.998;14.858;2022-08-30T04:18:59;5.72;;;3.13;;
71888;SDS011;59762;49.998;14.858;2022-08-30T04:21:25;8.40;;;3.60;;
71888;SDS011;59762;49.998;14.858;2022-08-30T04:23:50;8.35;;;3.70;;
71888;SDS011;59762;49.998;14.858;2022-08-30T04:26:16;10.30;;;3.95;;
71888;SDS011;59762;49.998;14.858;2022-08-30T04:28:42;11.38;;;4.05;;
71888;SDS011;59762;49.998;14.858;2022-08-30T04:31:09;6.72;;;3.55;;
71888;SDS011;59762;49.998;14.858;2022-08-30T04:33:36;7.43;;;3.97;;
71888;SDS011;59762;49.998;14.858;2022-08-30T04:36:02;9.93;;;3.95;;
71888;SDS011;59762;49.998;14.858;2022-08-30T04:38:31;9.02;;;3.50;;
71888;SDS011;59762;49.998;14.858;2022-08-30T04:40:58;11.32;;;3.72;;
71888;SDS011;59762;49.998;14.858;2022-08-30T04:43:24;13.00;;;4.35;;
71888;SDS011;59762;49.998;14.858;2022-08-30T04:45:51;8.70;;;3.50;;
71888;SDS011;59762;49.998;14.858;2022-08-30T04:48:18;14.25;;;3.80;;
71888;SDS011;59762;49.998;14.858;2022-08-30T04:50:44;8.52;;;3.92;;
71888;SDS011;59762;49.998;14.858;2022-08-30T04:53:11;10.13;;;3.55;;
71888;SDS011;59762;49.998;14.858;2022-08-30T04:55:41;10.40;;;4.00;;
71888;SDS011;59762;49.998;14.858;2022-08-30T04:58:08;8.38;;;3.30;;
71888;SDS011;59762;49.998;14.858;2022-08-30T05:00:34;8.65;;;3.83;;
71888;SDS011;59762;49.998;14.858;2022-08-30T05:03:06;6.38;;;3.72;;
71888;SDS011;59762;49.998;14.858;2022-08-30T05:05:31;8.10;;;3.38;;
71888;SDS011;59762;49.998;14.858;2022-08-30T05:08:07;7.25;;;3.08;;
71888;SDS011;59762;49.998;14.858;2022-08-30T05:10:40;6.60;;;2.80;;
71888;SDS011;59762;49.998;14.858;2022-08-30T05:13:11;5.85;;;2.67;;
71888;SDS011;59762;49.998;14.858;2022-08-30T05:15:37;5.15;;;3.33;;
71888;SDS011;59762;49.998;14.858;2022-08-30T05:18:07;7.65;;;3.08;;
71888;SDS011;59762;49.998;14.858;2022-08-30T05:20:34;7.90;;;3.28;;
71888;SDS011;59762;49.998;14.858;2022-08-30T05:23:01;5.88;;;2.88;;
71888;SDS011;59762;49.998;14.858;2022-08-30T05:25:29;8.63;;;3.20;;
71888;SDS011;59762;49.998;14.858;2022-08-30T05:27:58;7.30;;;3.00;;
71888;SDS011;59762;49.998;14.858;2022-08-30T05:30:24;4.43;;;2.83;;
71888;SDS011;59762;49.998;14.858;2022-08-30T05:32:52;5.30;;;3.08;;
71888;SDS011;59762;49.998;14.858;2022-08-30T05:35:18;5.95;;;2.70;;
71888;SDS011;59762;49.998;14.858;2022-08-30T05:37:45;5.57;;;2.90;;
71888;SDS011;59762;49.998;14.858;2022-08-30T05:40:11;7.72;;;3.25;;
71888;SDS011;59762;49.998;14.858;2022-08-30T05:42:39;7.63;;;3.38;;
71888;SDS011;59762;49.998;14.858;2022-08-30T05:45:06;5.22;;;3.38;;
71888;SDS011;59762;49.998;14.858;2022-08-30T05:47:32;7.68;;;3.60;;
71888;SDS011;59762;49.998;14.858;2022-08-30T05:49:57;5.95;;;3.03;;
71888;SDS011;59762;49.998;14.858;2022-08-30T05:52:23;6.93;;;3.40;;
71888;SDS011;59762;49.998;14.858;2022-08-30T05:54:52;9.43;;;3.97;;
71888;SDS011;59762;49.998;14.858;2022-08-30T05:57:20;9.07;;;3.55;;
71888;SDS011;59762;49.998;14.858;2022-08-30T05:59:46;4.78;;;3.10;;
71888;SDS011;59762;49.998;14.858;2022-08-30T06:02:12;9.57;;;3.30;;
71888;SDS011;59762;49.998;14.858;2022-08-30T06:04:38;4.60;;;3.40;;
71888;SDS011;59762;49.998;14.858;2022-08-30T06:07:04;6.13;;;3.50;;
71888;SDS011;59762;49.998;14.858;2022-08-30T06:09:30;7.85;;;3.42;;
71888;SDS011;59762;49.998;14.858;2022-08-30T06:11:59;8.63;;;3.10;;
71888;SDS011;59762;49.998;14.858;2022-08-30T06:14:25;5.20;;;3.38;;
71888;SDS011;59762;49.998;14.858;2022-08-30T06:16:51;5.38;;;3.15;;
71888;SDS011;59762;49.998;14.858;2022-08-30T06:19:18;8.68;;;4.28;;
71888;SDS011;59762;49.998;14.858;2022-08-30T06:21:47;5.20;;;3.00;;
71888;SDS011;59762;49.998;14.858;2022-08-30T06:24:13;5.20;;;3.50;;
71888;SDS011;59762;49.998;14.858;2022-08-30T06:26:40;4.78;;;3.33;;
71888;SDS011;59762;49.998;14.858;2022-08-30T06:29:15;4.97;;;3.22;;
71888;SDS011;59762;49.998;14.858;2022-08-30T06:31:43;7.22;;;3.42;;
71888;SDS011;59762;49.998;14.858;2022-08-30T06:34:09;8.95;;;3.85;;
71888;SDS011;59762;49.998;14.858;2022-08-30T06:36:35;5.60;;;3.28;;
71888;SDS011;59762;49.998;14.858;2022-08-30T06:39:02;6.18;;;3.92;;
71888;SDS011;59762;49.998;14.858;2022-08-30T06:41:28;6.75;;;3.58;;
71888;SDS011;59762;49.998;14.858;2022-08-30T06:43:56;8.40;;;3.97;;
71888;SDS011;59762;49.998;14.858;2022-08-30T06:46:27;6.72;;;3.60;;
71888;SDS011;59762;49.998;14.858;2022-08-30T06:48:56;7.93;;;4.68;;
71888;SDS011;59762;49.998;14.858;2022-08-30T06:51:24;6.75;;;3.83;;
71888;SDS011;59762;49.998;14.858;2022-08-30T06:53:52;10.38;;;4.30;;
71888;SDS011;59762;49.998;14.858;2022-08-30T06:59:03;6.22;;;4.07;;
71888;SDS011;59762;49.998;14.858;2022-08-30T07:01:29;6.70;;;4.15;;
71888;SDS011;59762;49.998;14.858;2022-08-30T07:03:56;8.63;;;4.07;;
71888;SDS011;59762;49.998;14.858;2022-08-30T07:06:23;6.60;;;4.00;;
71888;SDS011;59762;49.998;14.858;2022-08-30T07:08:50;8.80;;;4.30;;
71888;SDS011;59762;49.998;14.858;2022-08-30T07:11:29;8.35;;;4.63;;
71888;SDS011;59762;49.998;14.858;2022-08-30T07:13:57;7.07;;;4.18;;
71888;SDS011;59762;49.998;14.858;2022-08-30T07:16:24;8.40;;;4.53;;
71888;SDS011;59762;49.998;14.858;2022-08-30T07:18:51;8.40;;;4.45;;
71888;SDS011;59762;49.998;14.858;2022-08-30T07:21:25;7.90;;;4.40;;
71888;SDS011;59762;49.998;14.858;2022-08-30T07:23:54;10.05;;;4.53;;
71888;SDS011;59762;49.998;14.858;2022-08-30T07:26:26;7.97;;;4.57;;
71888;SDS011;59762;49.998;14.858;2022-08-30T07:28:55;10.35;;;4.95;;
71888;SDS011;59762;49.998;14.858;2022-08-30T07:31:21;5.78;;;3.92;;
71888;SDS011;59762;49.998;14.858;2022-08-30T07:33:48;10.32;;;4.47;;
71888;SDS011;59762;49.998;14.858;2022-08-30T07:36:14;8.88;;;4.35;;
71888;SDS011;59762;49.998;14.858;2022-08-30T07:38:42;8.20;;;4.18;;
71888;SDS011;59762;49.998;14.858;2022-08-30T07:41:14;8.93;;;4.00;;
71888;SDS011;59762;49.998;14.858;2022-08-30T07:43:41;6.70;;;3.83;;
71888;SDS011;59762;49.998;14.858;2022-08-30T07:46:06;7.40;;;3.53;;
71888;SDS011;59762;49.998;14.858;2022-08-30T07:48:33;5.05;;;3.17;;
71888;SDS011;59762;49.998;14.858;2022-08-30T07:50:59;5.30;;;3.45;;
71888;SDS011;59762;49.998;14.858;2022-08-30T07:53:25;11.55;;;4.90;;
71888;SDS011;59762;49.998;14.858;2022-08-30T07:55:51;5.30;;;3.63;;
71888;SDS011;59762;49.998;14.858;2022-08-30T07:58:17;8.50;;;3.60;;
71888;SDS011;59762;49.998;14.858;2022-08-30T08:00:43;7.63;;;3.97;;
71888;SDS011;59762;49.998;14.858;2022-08-30T08:03:10;12.02;;;4.07;;
71888;SDS011;59762;49.998;14.858;2022-08-30T08:05:39;6.72;;;3.55;;
71888;SDS011;59762;49.998;14.858;2022-08-30T08:08:07;5.68;;;3.08;;
71888;SDS011;59762;49.998;14.858;2022-08-30T08:10:35;9.15;;;3.13;;
71888;SDS011;59762;49.998;14.858;2022-08-30T08:13:05;10.15;;;3.92;;
71888;SDS011;59762;49.998;14.858;2022-08-30T08:15:30;5.57;;;3.20;;
71888;SDS011;59762;49.998;14.858;2022-08-30T08:17:57;6.97;;;3.33;;
71888;SDS011;59762;49.998;14.858;2022-08-30T08:20:23;7.55;;;3.15;;
71888;SDS011;59762;49.998;14.858;2022-08-30T08:22:50;10.07;;;3.92;;
71888;SDS011;59762;49.998;14.858;2022-08-30T08:25:16;8.23;;;3.00;;
71888;SDS011;59762;49.998;14.858;2022-08-30T08:27:45;5.65;;;2.80;;
71888;SDS011;59762;49.998;14.858;2022-08-30T08:30:15;6.50;;;2.72;;
71888;SDS011;59762;49.998;14.858;2022-08-30T08:32:45;6.43;;;3.15;;
71888;SDS011;59762;49.998;14.858;2022-08-30T08:35:11;5.50;;;3.35;;
71888;SDS011;59762;49.998;14.858;2022-08-30T08:37:37;8.10;;;3.90;;
71888;SDS011;59762;49.998;14.858;2022-08-30T08:40:04;6.95;;;2.83;;
71888;SDS011;59762;49.998;14.858;2022-08-30T08:48:13;8.00;;;3.25;;
71888;SDS011;59762;49.998;14.858;2022-08-30T08:50:51;5.57;;;3.05;;
71888;SDS011;59762;49.998;14.858;2022-08-30T08:53:35;8.75;;;3.22;;
71888;SDS011;59762;49.998;14.858;2022-08-30T08:56:05;8.02;;;3.78;;
71888;SDS011;59762;49.998;14.858;2022-08-30T08:58:43;10.82;;;3.20;;
71888;SDS011;59762;49.998;14.858;2022-08-30T09:01:15;6.32;;;2.90;;
71888;SDS011;59762;49.998;14.858;2022-08-30T09:03:43;8.50;;;3.33;;
71888;SDS011;59762;49.998;14.858;2022-08-30T09:08:52;7.07;;;3.60;;
71888;SDS011;59762;49.998;14.858;2022-08-30T09:11:22;7.72;;;3.17;;
71888;SDS011;59762;49.998;14.858;2022-08-30T09:13:53;8.35;;;3.58;;
71888;SDS011;59762;49.998;14.858;2022-08-30T09:19:34;7.22;;;3.10;;
71888;SDS011;59762;49.998;14.858;2022-08-30T09:27:51;6.03;;;2.58;;
71888;SDS011;59762;49.998;14.858;2022-08-30T09:30:23;6.57;;;2.85;;
71888;SDS011;59762;49.998;14.858;2022-08-30T09:32:54;5.28;;;3.38;;
71888;SDS011;59762;49.998;14.858;2022-08-30T09:35:22;6.70;;;3.55;;
71888;SDS011;59762;49.998;14.858;2022-08-30T09:38:09;6.93;;;2.85;;
71888;SDS011;59762;49.998;14.858;2022-08-30T09:45:44;6.93;;;3.40;;
71888;SDS011;59762;49.998;14.858;2022-08-30T10:01:35;9.73;;;3.17;;
71888;SDS011;59762;49.998;14.858;2022-08-30T10:04:11;5.50;;;3.10;;
71888;SDS011;59762;49.998;14.858;2022-08-30T10:06:49;5.53;;;3.17;;
71888;SDS011;59762;49.998;14.858;2022-08-30T10:12:23;5.90;;;3.38;;
71888;SDS011;59762;49.998;14.858;2022-08-30T10:15:24;8.82;;;3.50;;
71888;SDS011;59762;49.998;14.858;2022-08-30T10:18:11;6.07;;;3.05;;
71888;SDS011;59762;49.998;14.858;2022-08-30T10:23:52;9.35;;;3.70;;
71888;SDS011;59762;49.998;14.858;2022-08-30T10:31:27;10.18;;;3.92;;
71888;SDS011;59762;49.998;14.858;2022-08-30T10:34:04;6.25;;;3.25;;
71888;SDS011;59762;49.998;14.858;2022-08-30T10:36:44;8.85;;;3.65;;
71888;SDS011;59762;49.998;14.858;2022-08-30T10:39:23;6.90;;;4.00;;
71888;SDS011;59762;49.998;14.858;2022-08-30T10:41:55;13.77;;;4.00;;
71888;SDS011;59762;49.998;14.858;2022-08-30T10:44:31;7.47;;;4.38;;
71888;SDS011;59762;49.998;14.858;2022-08-30T10:47:10;12.93;;;4.28;;
71888;SDS011;59762;49.998;14.858;2022-08-30T10:49:47;8.07;;;4.40;;
71888;SDS011;59762;49.998;14.858;2022-08-30T10:55:13;8.82;;;5.03;;
71888;SDS011;59762;49.998;14.858;2022-08-30T10:57:43;11.25;;;5.00;;
71888;SDS011;59762;49.998;14.858;2022-08-30T11:00:15;14.43;;;4.93;;
71888;SDS011;59762;49.998;14.858;2022-08-30T11:11:15;11.20;;;4.13;;
71888;SDS011;59762;49.998;14.858;2022-08-30T11:13:43;5.13;;;3.63;;
71888;SDS011;59762;49.998;14.858;2022-08-30T11:16:12;9.88;;;3.88;;
71888;SDS011;59762;49.998;14.858;2022-08-30T11:19:18;8.80;;;3.72;;
71888;SDS011;59762;49.998;14.858;2022-08-30T11:21:48;8.80;;;3.63;;
71888;SDS011;59762;49.998;14.858;2022-08-30T11:24:15;6.63;;;2.97;;
71888;SDS011;59762;49.998;14.858;2022-08-30T11:37:10;5.75;;;3.17;;
71888;SDS011;59762;49.998;14.858;2022-08-30T11:39:55;6.43;;;2.60;;
71888;SDS011;59762;49.998;14.858;2022-08-30T11:50:54;6.40;;;2.40;;
71888;SDS011;59762;49.998;14.858;2022-08-30T11:53:37;6.25;;;2.78;;
71888;SDS011;59762;49.998;14.858;2022-08-30T11:58:49;6.15;;;2.53;;
71888;SDS011;59762;49.998;14.858;2022-08-30T12:07:00;8.30;;;2.58;;
71888;SDS011;59762;49.998;14.858;2022-08-30T12:14:43;6.07;;;2.10;;
71888;SDS011;59762;49.998;14.858;2022-08-30T12:22:49;4.75;;;2.05;;
71888;SDS011;59762;49.998;14.858;2022-08-30T12:25:37;4.20;;;2.08;;
71888;SDS011;59762;49.998;14.858;2022-08-30T12:28:09;3.60;;;2.33;;
71888;SDS011;59762;49.998;14.858;2022-08-30T12:30:37;3.95;;;2.15;;
71888;SDS011;59762;49.998;14.858;2022-08-30T12:33:04;3.58;;;2.17;;
71888;SDS011;59762;49.998;14.858;2022-08-30T12:35:30;12.05;;;4.05;;
71888;SDS011;59762;49.998;14.858;2022-08-30T12:38:00;4.82;;;2.92;;
71888;SDS011;59762;49.998;14.858;2022-08-30T12:40:28;3.15;;;2.08;;
71888;SDS011;59762;49.998;14.858;2022-08-30T12:42:56;4.72;;;2.25;;
71888;SDS011;59762;49.998;14.858;2022-08-30T12:45:26;3.08;;;2.10;;
71888;SDS011;59762;49.998;14.858;2022-08-30T12:47:59;3.00;;;1.85;;
71888;SDS011;59762;49.998;14.858;2022-08-30T12:50:30;3.85;;;2.28;;
71888;SDS011;59762;49.998;14.858;2022-08-30T12:53:04;4.25;;;2.20;;
71888;SDS011;59762;49.998;14.858;2022-08-30T12:55:48;5.35;;;2.53;;
71888;SDS011;59762;49.998;14.858;2022-08-30T12:58:40;3.33;;;1.88;;
71888;SDS011;59762;49.998;14.858;2022-08-30T13:04:10;3.70;;;2.55;;
71888;SDS011;59762;49.998;14.858;2022-08-30T13:09:30;3.08;;;1.90;;
71888;SDS011;59762;49.998;14.858;2022-08-30T13:11:58;5.20;;;2.30;;
71888;SDS011;59762;49.998;14.858;2022-08-30T13:14:59;5.43;;;2.47;;
71888;SDS011;59762;49.998;14.858;2022-08-30T13:17:32;3.95;;;2.00;;
71888;SDS011;59762;49.998;14.858;2022-08-30T13:22:25;4.35;;;2.10;;
71888;SDS011;59762;49.998;14.858;2022-08-30T13:27:24;3.25;;;2.03;;
71888;SDS011;59762;49.998;14.858;2022-08-30T13:29:51;2.65;;;1.67;;
71888;SDS011;59762;49.998;14.858;2022-08-30T13:32:17;3.40;;;1.88;;
71888;SDS011;59762;49.998;14.858;2022-08-30T13:34:42;4.72;;;2.10;;
71888;SDS011;59762;49.998;14.858;2022-08-30T13:37:09;5.32;;;2.15;;
71888;SDS011;59762;49.998;14.858;2022-08-30T13:39:39;4.10;;;2.10;;
71888;SDS011;59762;49.998;14.858;2022-08-30T13:42:05;3.45;;;1.75;;
71888;SDS011;59762;49.998;14.858;2022-08-30T13:44:31;6.40;;;2.30;;
71888;SDS011;59762;49.998;14.858;2022-08-30T13:46:57;4.70;;;1.98;;
71888;SDS011;59762;49.998;14.858;2022-08-30T13:49:32;5.80;;;2.13;;
71888;SDS011;59762;49.998;14.858;2022-08-30T13:52:04;3.45;;;1.83;;
71888;SDS011;59762;49.998;14.858;2022-08-30T13:54:32;3.70;;;2.10;;
71888;SDS011;59762;49.998;14.858;2022-08-30T13:56:58;3.13;;;2.08;;
71888;SDS011;59762;49.998;14.858;2022-08-30T13:59:23;3.00;;;1.90;;
71888;SDS011;59762;49.998;14.858;2022-08-30T14:01:52;3.28;;;1.88;;
71888;SDS011;59762;49.998;14.858;2022-08-30T14:04:19;2.92;;;1.80;;
71888;SDS011;59762;49.998;14.858;2022-08-30T14:06:45;5.82;;;2.00;;
71888;SDS011;59762;49.998;14.858;2022-08-30T14:09:10;4.97;;;1.75;;
71888;SDS011;59762;49.998;14.858;2022-08-30T14:11:38;4.80;;;2.10;;
71888;SDS011;59762;49.998;14.858;2022-08-30T14:14:04;4.07;;;2.22;;
71888;SDS011;59762;49.998;14.858;2022-08-30T14:16:30;4.47;;;2.10;;
71888;SDS011;59762;49.998;14.858;2022-08-30T14:18:56;3.47;;;2.38;;
71888;SDS011;59762;49.998;14.858;2022-08-30T14:21:22;4.43;;;2.35;;
71888;SDS011;59762;49.998;14.858;2022-08-30T14:23:48;5.07;;;2.28;;
71888;SDS011;59762;49.998;14.858;2022-08-30T14:26:17;4.15;;;2.20;;
71888;SDS011;59762;49.998;14.858;2022-08-30T14:28:46;4.38;;;2.17;;
71888;SDS011;59762;49.998;14.858;2022-08-30T14:31:13;3.67;;;2.00;;
71888;SDS011;59762;49.998;14.858;2022-08-30T14:33:40;3.28;;;2.28;;
71888;SDS011;59762;49.998;14.858;2022-08-30T14:36:06;2.90;;;2.15;;
71888;SDS011;59762;49.998;14.858;2022-08-30T14:38:32;6.00;;;2.50;;
71888;SDS011;59762;49.998;14.858;2022-08-30T14:40:58;3.17;;;2.17;;
71888;SDS011;59762;49.998;14.858;2022-08-30T14:43:23;4.40;;;2.17;;
71888;SDS011;59762;49.998;14.858;2022-08-30T14:45:49;5.15;;;2.20;;
71888;SDS011;59762;49.998;14.858;2022-08-30T14:48:15;5.18;;;2.30;;
71888;SDS011;59762;49.998;14.858;2022-08-30T14:50:40;5.15;;;2.30;;
71888;SDS011;59762;49.998;14.858;2022-08-30T14:53:06;5.15;;;2.38;;
71888;SDS011;59762;49.998;14.858;2022-08-30T14:55:32;5.40;;;1.98;;
71888;SDS011;59762;49.998;14.858;2022-08-30T14:57:59;7.95;;;2.60;;
71888;SDS011;59762;49.998;14.858;2022-08-30T15:00:25;4.60;;;2.85;;
71888;SDS011;59762;49.998;14.858;2022-08-30T15:02:51;4.93;;;2.80;;
71888;SDS011;59762;49.998;14.858;2022-08-30T15:05:17;6.30;;;2.30;;
71888;SDS011;59762;49.998;14.858;2022-08-30T15:07:43;5.70;;;2.42;;
71888;SDS011;59762;49.998;14.858;2022-08-30T15:10:14;3.63;;;2.33;;
71888;SDS011;59762;49.998;14.858;2022-08-30T15:12:40;4.22;;;2.38;;
71888;SDS011;59762;49.998;14.858;2022-08-30T15:15:06;4.40;;;2.38;;
71888;SDS011;59762;49.998;14.858;2022-08-30T15:17:32;3.47;;;2.42;;
71888;SDS011;59762;49.998;14.858;2022-08-30T15:19:58;5.95;;;2.17;;
71888;SDS011;59762;49.998;14.858;2022-08-30T15:22:23;5.07;;;2.42;;
71888;SDS011;59762;49.998;14.858;2022-08-30T15:24:49;4.72;;;2.58;;
71888;SDS011;59762;49.998;14.858;2022-08-30T15:27:14;3.92;;;2.40;;
71888;SDS011;59762;49.998;14.858;2022-08-30T15:29:40;6.15;;;2.38;;
71888;SDS011;59762;49.998;14.858;2022-08-30T15:32:06;7.03;;;2.40;;
71888;SDS011;59762;49.998;14.858;2022-08-30T15:34:31;4.88;;;2.40;;
71888;SDS011;59762;49.998;14.858;2022-08-30T15:36:58;3.95;;;2.22;;
71888;SDS011;59762;49.998;14.858;2022-08-30T15:39:24;4.20;;;2.25;;
71888;SDS011;59762;49.998;14.858;2022-08-30T15:41:50;2.72;;;1.75;;
71888;SDS011;59762;49.998;14.858;2022-08-30T15:44:17;4.38;;;2.20;;
71888;SDS011;59762;49.998;14.858;2022-08-30T15:46:43;4.47;;;2.38;;
71888;SDS011;59762;49.998;14.858;2022-08-30T15:49:11;4.43;;;2.47;;
71888;SDS011;59762;49.998;14.858;2022-08-30T15:51:40;3.95;;;2.22;;
71888;SDS011;59762;49.998;14.858;2022-08-30T15:54:07;6.03;;;2.63;;
71888;SDS011;59762;49.998;14.858;2022-08-30T15:56:34;2.65;;;2.17;;
71888;SDS011;59762;49.998;14.858;2022-08-30T15:58:59;5.47;;;2.08;;
71888;SDS011;59762;49.998;14.858;2022-08-30T16:01:25;4.57;;;2.03;;
71888;SDS011;59762;49.998;14.858;2022-08-30T16:03:50;5.55;;;2.20;;
71888;SDS011;59762;49.998;14.858;2022-08-30T16:06:18;7.20;;;2.15;;
71888;SDS011;59762;49.998;14.858;2022-08-30T16:08:45;4.95;;;2.38;;
71888;SDS011;59762;49.998;14.858;2022-08-30T16:11:13;2.95;;;2.00;;
71888;SDS011;59762;49.998;14.858;2022-08-30T16:13:41;4.72;;;2.13;;
71888;SDS011;59762;49.998;14.858;2022-08-30T16:16:07;5.13;;;2.20;;
71888;SDS011;59762;49.998;14.858;2022-08-30T16:18:34;4.88;;;2.47;;
71888;SDS011;59762;49.998;14.858;2022-08-30T16:21:05;2.75;;;2.00;;
71888;SDS011;59762;49.998;14.858;2022-08-30T16:23:31;3.53;;;2.40;;
71888;SDS011;59762;49.998;14.858;2022-08-30T16:25:57;3.95;;;2.10;;
71888;SDS011;59762;49.998;14.858;2022-08-30T16:28:24;3.65;;;2.38;;
71888;SDS011;59762;49.998;14.858;2022-08-30T16:30:50;3.85;;;2.60;;
71888;SDS011;59762;49.998;14.858;2022-08-30T16:33:15;5.72;;;2.92;;